Time;durP1;ratioP1;P1;durP2;ratioP2;P2;SDS_P1;SDS_P2;PMS_P1;PMS_P2;Temp;Humidity;BMP_temperature;BMP_pressure;BME280_temperature;BME280_humidity;BME280_pressure;Samples;Min_cycle;Max_cycle;Signal;HPM_P1;HPM_P2
2022/08/10 00:01:12;;;;;;;6.70;3.57;;;19.90;99.90;;;;;;4958011;29;20277;-77
2022/08/10 00:03:39;;;;;;;7.17;3.47;;;20.00;99.90;;;;;;4958535;29;20267;-77
2022/08/10 00:06:06;;;;;;;6.60;3.60;;;19.90;99.90;;;;;;4958371;29;20683;-77
2022/08/10 00:08:33;;;;;;;6.80;3.60;;;19.90;99.90;;;;;;4958273;29;20238;-77
2022/08/10 00:11:00;;;;;;;9.03;4.03;;;19.90;99.90;;;;;;4958278;29;20235;-77
2022/08/10 00:13:28;;;;;;;9.20;3.60;;;19.80;99.90;;;;;;4958520;29;20237;-77
2022/08/10 00:15:55;;;;;;;7.73;3.57;;;19.80;99.90;;;;;;4958252;29;20293;-77
2022/08/10 00:18:22;;;;;;;5.30;3.60;;;19.70;99.90;;;;;;4958041;29;20285;-77
2022/08/10 00:20:49;;;;;;;8.63;3.70;;;19.60;99.90;;;;;;4958404;29;20305;-77
2022/08/10 00:23:17;;;;;;;7.83;3.50;;;19.60;99.90;;;;;;4957758;29;20257;-77
2022/08/10 00:25:44;;;;;;;7.37;3.50;;;19.60;99.90;;;;;;4958011;29;20210;-76
2022/08/10 00:28:11;;;;;;;6.30;3.70;;;19.50;99.90;;;;;;4958250;29;20231;-77
2022/08/10 00:30:39;;;;;;;6.70;3.47;;;19.60;99.90;;;;;;4957681;29;20298;-77
2022/08/10 00:33:07;;;;;;;8.87;3.90;;;19.50;99.90;;;;;;4957787;29;20293;-77
2022/08/10 00:35:33;;;;;;;6.97;3.77;;;19.50;99.90;;;;;;4957424;29;20242;-77
2022/08/10 00:38:00;;;;;;;7.53;3.77;;;19.50;99.90;;;;;;4957456;29;20607;-77
2022/08/10 00:40:27;;;;;;;9.40;3.60;;;19.40;99.90;;;;;;4957235;29;20247;-77
2022/08/10 00:42:54;;;;;;;7.87;4.20;;;19.40;99.90;;;;;;4957012;29;20227;-74
2022/08/10 00:45:21;;;;;;;7.63;3.70;;;19.40;99.90;;;;;;4957578;29;20662;-76
2022/08/10 00:47:50;;;;;;;6.93;3.60;;;19.40;99.90;;;;;;4957413;29;20395;-74
2022/08/10 00:50:17;;;;;;;8.27;3.80;;;19.40;99.90;;;;;;4957507;29;20211;-74
2022/08/10 00:52:45;;;;;;;6.73;3.57;;;19.40;99.90;;;;;;4957127;29;20210;-74
2022/08/10 00:55:12;;;;;;;9.80;4.10;;;19.40;99.90;;;;;;4957313;29;20291;-74
2022/08/10 00:57:39;;;;;;;6.80;3.80;;;19.40;99.90;;;;;;4956642;29;20310;-74
2022/08/10 01:00:08;;;;;;;5.43;3.90;;;19.50;99.90;;;;;;4957086;29;20241;-74
2022/08/10 01:02:36;;;;;;;7.03;3.70;;;19.40;99.90;;;;;;4957104;29;20210;-74
2022/08/10 01:05:07;;;;;;;7.17;3.80;;;19.40;99.90;;;;;;4957435;29;20645;-74
2022/08/10 01:07:53;;;;;;;8.00;3.87;;;19.40;99.90;;;;;;4956784;28;20235;-76
2022/08/10 01:10:33;;;;;;;8.67;4.17;;;19.50;99.90;;;;;;4957359;29;20290;-74
2022/08/10 01:13:09;;;;;;;7.77;3.57;;;19.40;99.90;;;;;;4939486;29;20219;-74
2022/08/10 01:15:47;;;;;;;6.47;3.93;;;19.40;99.90;;;;;;4957210;29;20586;-74
2022/08/10 01:18:21;;;;;;;8.00;3.87;;;19.40;99.90;;;;;;4956793;29;20335;-74
2022/08/10 01:21:20;;;;;;;6.70;3.63;;;19.30;99.90;;;;;;4956665;29;20293;-74
2022/08/10 01:24:03;;;;;;;8.30;4.50;;;19.40;99.90;;;;;;4956920;29;20318;-74
2022/08/10 01:26:57;;;;;;;6.47;4.07;;;19.20;99.90;;;;;;4956643;29;20262;-74
2022/08/10 01:29:49;;;;;;;6.57;3.70;;;19.20;99.90;;;;;;4956568;29;20567;-74
2022/08/10 01:32:24;;;;;;;7.73;4.17;;;19.20;99.90;;;;;;4956475;29;20202;-74
2022/08/10 01:34:55;;;;;;;7.13;4.00;;;19.10;99.90;;;;;;4956531;29;20293;-74
2022/08/10 01:37:26;;;;;;;8.93;4.30;;;19.00;99.90;;;;;;4956509;29;20245;-74
2022/08/10 01:39:57;;;;;;;7.60;4.00;;;19.00;99.90;;;;;;4962230;28;20719;-74
2022/08/10 01:42:24;;;;;;;9.47;3.90;;;18.90;99.90;;;;;;4975571;28;20210;-74
2022/08/10 01:44:56;;;;;;;7.37;4.03;;;18.80;99.90;;;;;;4975500;28;20289;-73
2022/08/10 01:50:20;;;;;;;9.60;4.10;;;18.60;99.90;;;;;;4975512;28;20200;-74
2022/08/10 01:52:50;;;;;;;6.93;4.40;;;18.50;99.90;;;;;;4975488;28;20234;-74
2022/08/10 01:55:18;;;;;;;8.10;4.47;;;18.70;99.90;;;;;;4975418;28;20198;-74
2022/08/10 01:57:47;;;;;;;6.67;4.10;;;18.70;99.90;;;;;;4975264;28;20265;-74
2022/08/10 02:00:16;;;;;;;8.07;3.90;;;18.60;99.90;;;;;;4974877;28;20705;-74
2022/08/10 02:02:47;;;;;;;5.67;4.13;;;18.50;99.90;;;;;;4975473;28;20302;-74
2022/08/10 02:05:15;;;;;;;8.73;4.10;;;18.50;99.90;;;;;;4975139;28;20230;-73
2022/08/10 02:07:43;;;;;;;8.20;4.20;;;18.50;99.90;;;;;;4975339;28;20249;-74
2022/08/10 02:10:12;;;;;;;7.87;3.97;;;18.40;99.90;;;;;;4974868;28;20213;-74
2022/08/10 02:12:43;;;;;;;7.77;4.03;;;18.40;99.90;;;;;;4964215;28;20249;-73
2022/08/10 02:15:14;;;;;;;6.93;4.30;;;18.30;99.90;;;;;;4955724;29;20931;-74
2022/08/10 02:17:48;;;;;;;7.00;4.13;;;18.30;99.90;;;;;;4956048;29;20291;-74
2022/08/10 02:20:20;;;;;;;6.90;4.60;;;18.20;99.90;;;;;;4954991;28;20235;-74
2022/08/10 02:22:52;;;;;;;9.40;4.57;;;18.20;99.90;;;;;;4954579;28;20230;-74
2022/08/10 02:25:21;;;;;;;8.00;4.20;;;18.30;99.90;;;;;;4951660;29;20266;-74
2022/08/10 02:27:49;;;;;;;7.67;3.93;;;18.30;99.90;;;;;;4955847;28;20625;-74
2022/08/10 02:30:17;;;;;;;6.07;4.07;;;18.30;99.90;;;;;;4955495;29;20238;-74
2022/08/10 02:32:46;;;;;;;8.73;4.50;;;18.30;99.90;;;;;;4955695;29;20298;-75
2022/08/10 02:35:15;;;;;;;7.63;4.40;;;18.20;99.90;;;;;;4955723;29;20294;-74
2022/08/10 02:37:46;;;;;;;7.20;4.10;;;18.10;99.90;;;;;;4955607;29;20203;-74
2022/08/10 02:40:13;;;;;;;8.80;4.43;;;18.10;99.90;;;;;;4955235;28;20629;-74
2022/08/10 02:42:50;;;;;;;7.80;4.50;;;18.00;99.90;;;;;;4955265;29;20564;-74
2022/08/10 02:45:23;;;;;;;5.40;4.40;;;18.00;99.90;;;;;;4955438;28;20258;-74
2022/08/10 02:47:58;;;;;;;7.17;4.63;;;18.20;99.90;;;;;;4955274;29;20294;-74
2022/08/10 02:50:28;;;;;;;8.70;4.20;;;18.30;99.90;;;;;;4955318;28;20209;-74
2022/08/10 02:53:00;;;;;;;7.93;4.30;;;18.20;99.90;;;;;;4955260;29;20674;-74
2022/08/10 02:55:33;;;;;;;8.13;4.33;;;18.30;99.90;;;;;;4955044;29;20198;-74
2022/08/10 02:58:14;;;;;;;6.30;4.30;;;18.20;99.90;;;;;;4954986;28;20646;-74
2022/08/10 03:00:44;;;;;;;8.43;4.47;;;18.20;99.90;;;;;;4954872;29;20246;-74
2022/08/10 03:03:19;;;;;;;6.00;4.20;;;18.10;99.90;;;;;;4954961;29;20294;-74
2022/08/10 03:05:49;;;;;;;6.10;4.43;;;18.10;99.90;;;;;;4954760;29;21001;-74
2022/08/10 03:08:19;;;;;;;9.30;4.27;;;18.10;99.90;;;;;;4954764;29;20238;-74
2022/08/10 03:10:47;;;;;;;7.27;4.20;;;18.00;99.90;;;;;;4955109;29;20234;-74
2022/08/10 03:13:14;;;;;;;6.93;4.20;;;18.00;99.90;;;;;;4970352;28;20294;-74
2022/08/10 03:15:42;;;;;;;6.40;4.30;;;18.00;99.90;;;;;;4974202;28;20612;-74
2022/08/10 03:18:11;;;;;;;7.37;4.53;;;18.10;99.90;;;;;;4974259;28;20285;-74
2022/08/10 03:20:42;;;;;;;10.50;4.83;;;18.00;99.90;;;;;;4974063;28;20245;-74
2022/08/10 03:23:13;;;;;;;6.63;4.47;;;18.00;99.90;;;;;;4973805;28;20199;-74
2022/08/10 03:25:42;;;;;;;9.03;4.70;;;17.90;99.90;;;;;;4974182;28;20261;-74
2022/08/10 03:28:10;;;;;;;7.37;4.50;;;17.80;99.90;;;;;;4973818;28;20686;-74
2022/08/10 03:30:37;;;;;;;9.60;4.90;;;17.80;99.90;;;;;;4974155;28;20297;-74
2022/08/10 03:33:06;;;;;;;9.53;4.27;;;17.80;99.90;;;;;;4974114;28;20245;-74
2022/08/10 03:35:34;;;;;;;6.67;4.57;;;17.70;99.90;;;;;;4973724;28;20234;-74
2022/08/10 03:38:03;;;;;;;8.70;4.90;;;17.70;99.90;;;;;;4974013;28;20290;-73
2022/08/10 03:40:35;;;;;;;9.57;5.13;;;17.70;99.90;;;;;;4973604;28;20628;-73
2022/08/10 03:43:06;;;;;;;8.33;5.00;;;17.60;99.90;;;;;;4974070;28;20333;-74
2022/08/10 03:45:36;;;;;;;6.57;4.57;;;17.60;99.90;;;;;;4974016;28;20226;-73
2022/08/10 03:48:06;;;;;;;7.93;5.10;;;17.60;99.90;;;;;;4973826;28;20293;-74
2022/08/10 03:50:35;;;;;;;9.77;4.93;;;17.70;99.90;;;;;;4973701;28;20206;-74
2022/08/10 03:53:03;;;;;;;6.20;5.07;;;17.70;99.90;;;;;;4973490;28;20230;-74
2022/08/10 03:55:31;;;;;;;8.10;5.13;;;17.70;99.90;;;;;;4973778;28;20230;-74
2022/08/10 03:57:58;;;;;;;11.00;4.80;;;17.60;99.90;;;;;;4973797;28;20318;-73
2022/08/10 04:00:27;;;;;;;8.47;5.37;;;17.60;99.90;;;;;;4969543;28;20331;-73
2022/08/10 04:02:56;;;;;;;11.53;5.60;;;17.60;99.90;;;;;;4954495;29;20409;-73
2022/08/10 04:05:23;;;;;;;5.73;4.50;;;17.60;99.90;;;;;;4954336;29;20226;-73
2022/08/10 04:07:50;;;;;;;8.23;5.23;;;17.40;99.90;;;;;;4954001;29;20246;-74
2022/08/10 04:10:19;;;;;;;7.53;5.00;;;17.40;99.90;;;;;;4954305;29;20203;-73
2022/08/10 04:12:46;;;;;;;10.57;5.03;;;17.40;99.90;;;;;;4942283;29;20251;-74
2022/08/10 04:15:12;;;;;;;6.87;4.93;;;17.40;99.90;;;;;;4935054;29;20604;-73
2022/08/10 04:17:39;;;;;;;8.90;5.20;;;17.40;99.90;;;;;;4935228;29;20235;-73
2022/08/10 04:20:11;;;;;;;8.97;5.40;;;17.40;99.90;;;;;;4934997;29;20208;-74
2022/08/10 04:22:39;;;;;;;8.93;5.37;;;17.40;99.90;;;;;;4935176;29;20242;-73
2022/08/10 04:25:08;;;;;;;7.13;4.67;;;17.40;99.90;;;;;;4949719;29;20267;-73
2022/08/10 04:27:37;;;;;;;8.10;5.00;;;17.40;99.90;;;;;;4934865;29;20243;-73
2022/08/10 04:30:04;;;;;;;10.57;4.90;;;17.30;99.90;;;;;;4935153;29;20292;-74
2022/08/10 04:32:33;;;;;;;6.10;4.97;;;17.30;99.90;;;;;;4935057;29;20287;-74
2022/08/10 04:35:03;;;;;;;8.70;5.43;;;17.20;99.90;;;;;;4934203;29;20227;-74
2022/08/10 04:37:31;;;;;;;9.73;5.40;;;17.20;99.90;;;;;;4934717;29;20243;-74
2022/08/10 04:39:58;;;;;;;9.00;5.00;;;17.10;99.90;;;;;;4934973;29;20259;-74
2022/08/10 04:42:25;;;;;;;7.17;5.03;;;17.10;99.90;;;;;;4934830;29;20703;-74
2022/08/10 04:44:54;;;;;;;8.93;5.63;;;17.10;99.90;;;;;;4937876;29;20232;-74
2022/08/10 04:47:21;;;;;;;8.60;5.20;;;17.10;99.90;;;;;;4938454;29;20649;-73
2022/08/10 04:49:48;;;;;;;9.97;5.13;;;17.10;99.90;;;;;;4937765;29;20239;-74
2022/08/10 04:52:15;;;;;;;7.97;5.13;;;17.00;99.90;;;;;;4938145;29;20294;-74
2022/08/10 04:54:42;;;;;;;7.90;5.13;;;17.00;99.90;;;;;;4937728;29;20291;-74
2022/08/10 04:57:09;;;;;;;7.03;5.30;;;17.00;99.90;;;;;;4938042;29;20311;-73
2022/08/10 04:59:36;;;;;;;8.60;5.80;;;17.00;99.90;;;;;;4937976;29;20254;-74
2022/08/10 05:02:04;;;;;;;12.03;5.73;;;17.00;99.90;;;;;;4954857;29;20266;-73
2022/08/10 05:04:31;;;;;;;12.60;5.83;;;17.00;99.90;;;;;;4956630;29;20317;-74
2022/08/10 05:06:58;;;;;;;10.10;5.87;;;17.00;99.90;;;;;;4957108;29;20203;-74
2022/08/10 05:09:25;;;;;;;9.43;6.00;;;17.00;99.90;;;;;;4957106;29;20207;-73
2022/08/10 05:11:52;;;;;;;9.57;5.57;;;17.00;99.90;;;;;;4956752;29;20243;-73
2022/08/10 05:14:19;;;;;;;7.30;5.60;;;17.10;99.90;;;;;;4956772;29;20647;-73
2022/08/10 05:16:45;;;;;;;7.77;5.80;;;17.10;99.90;;;;;;4957155;29;20266;-73
2022/08/10 05:19:14;;;;;;;9.20;5.90;;;17.10;99.90;;;;;;4956828;29;20289;-73
2022/08/10 05:21:41;;;;;;;8.00;5.23;;;17.10;99.90;;;;;;4956714;29;20245;-74
2022/08/10 05:24:08;;;;;;;8.33;5.50;;;17.20;99.90;;;;;;4956744;29;20295;-74
2022/08/10 05:26:35;;;;;;;6.40;5.67;;;17.20;99.90;;;;;;4957005;29;20286;-73
2022/08/10 05:29:02;;;;;;;8.80;5.13;;;17.30;99.90;;;;;;4956620;29;20290;-73
2022/08/10 05:31:29;;;;;;;6.97;5.50;;;17.30;99.90;;;;;;4956651;29;20655;-73
2022/08/10 05:33:56;;;;;;;6.97;5.53;;;17.40;99.90;;;;;;4956273;29;20226;-73
2022/08/10 05:36:25;;;;;;;9.60;5.47;;;17.50;99.90;;;;;;4956793;29;20286;-74
2022/08/10 05:38:53;;;;;;;7.30;4.90;;;17.70;99.90;;;;;;4956413;29;20214;-73
2022/08/10 05:41:20;;;;;;;8.93;5.03;;;18.00;99.90;;;;;;4956447;29;20298;-74
2022/08/10 05:43:47;;;;;;;8.30;5.27;;;18.20;99.90;;;;;;4956331;29;20294;-73
2022/08/10 05:46:14;;;;;;;7.87;5.00;;;18.40;99.90;;;;;;4956268;29;20235;-73
2022/08/10 05:48:42;;;;;;;5.50;4.50;;;18.70;99.90;;;;;;4956161;29;20683;-74
2022/08/10 05:51:09;;;;;;;8.75;5.03;;;19.00;99.90;;;;;;4956395;29;20293;-73
2022/08/10 05:53:38;;;;;;;9.70;4.63;;;19.30;99.90;;;;;;4956171;29;20294;-74
2022/08/10 05:56:07;;;;;;;10.73;4.95;;;19.40;99.90;;;;;;4955240;28;20214;-74
2022/08/10 05:58:35;;;;;;;6.38;4.55;;;19.80;99.90;;;;;;4956123;29;20775;-73
2022/08/10 06:01:05;;;;;;;4.60;3.97;;;20.10;99.90;;;;;;4955656;29;20274;-74
2022/08/10 06:03:36;;;;;;;6.13;4.55;;;20.60;99.90;;;;;;4955810;29;20250;-74
2022/08/10 06:06:06;;;;;;;5.82;4.50;;;21.00;99.90;;;;;;4956072;29;20263;-74
2022/08/10 06:08:35;;;;;;;7.57;4.38;;;21.10;99.90;;;;;;4955899;29;20245;-74
2022/08/10 06:11:05;;;;;;;6.07;3.67;;;21.60;99.90;;;;;;4956086;29;20242;-74
2022/08/10 06:16:20;;;;;;;6.65;3.63;;;22.60;99.90;;;;;;4955548;29;20189;-74
2022/08/10 06:18:47;;;;;;;6.05;3.80;;;23.30;99.90;;;;;;4955621;29;20762;-74
2022/08/10 06:21:15;;;;;;;8.32;4.35;;;23.80;99.90;;;;;;4955630;29;20243;-74
2022/08/10 06:23:44;;;;;;;8.65;3.40;;;24.20;99.90;;;;;;4955422;29;20234;-74
2022/08/10 06:26:12;;;;;;;4.15;3.45;;;24.90;99.90;;;;;;4955389;29;20262;-74
2022/08/10 06:28:43;;;;;;;4.70;3.30;;;25.20;99.90;;;;;;4955382;29;20234;-74
2022/08/10 06:31:12;;;;;;;6.97;3.72;;;25.80;99.90;;;;;;4954826;29;20684;-74
2022/08/10 06:33:40;;;;;;;5.93;3.50;;;25.80;99.90;;;;;;4955331;29;20203;-74
2022/08/10 06:36:08;;;;;;;5.75;3.17;;;26.00;99.90;;;;;;4955198;29;20203;-75
2022/08/10 06:38:38;;;;;;;5.40;2.85;;;26.20;99.90;;;;;;4955502;29;20242;-74
2022/08/10 06:41:12;;;;;;;3.88;3.00;;;26.60;99.90;;;;;;4955222;29;20655;-74
2022/08/10 06:43:47;;;;;;;4.35;3.20;;;26.60;99.90;;;;;;4955292;29;20234;-74
2022/08/10 06:46:18;;;;;;;4.65;3.10;;;27.40;99.90;;;;;;4954583;29;20733;-74
2022/08/10 06:48:49;;;;;;;4.47;3.00;;;27.50;99.90;;;;;;4955291;29;20294;-74
2022/08/10 06:51:21;;;;;;;7.00;2.95;;;26.80;99.90;;;;;;4954944;29;20217;-75
2022/08/10 06:53:52;;;;;;;4.40;3.08;;;26.70;99.90;;;;;;4955137;29;20203;-75
2022/08/10 06:56:21;;;;;;;5.95;3.20;;;26.80;99.90;;;;;;4954901;29;20238;-75
2022/08/10 06:58:53;;;;;;;8.05;3.40;;;26.70;99.90;;;;;;4954765;29;20227;-74
2022/08/10 07:01:23;;;;;;;4.43;2.75;;;27.00;99.90;;;;;;4954365;28;20271;-75
2022/08/10 07:03:57;;;;;;;4.40;2.88;;;27.30;99.90;;;;;;4954900;29;20263;-74
2022/08/10 07:06:25;;;;;;;3.95;2.70;;;27.50;99.90;;;;;;4954301;28;20901;-75
2022/08/10 07:08:53;;;;;;;3.45;2.50;;;27.30;99.90;;;;;;4954851;28;20286;-75
2022/08/10 07:11:21;;;;;;;6.18;3.03;;;27.50;99.90;;;;;;4954445;29;20294;-74
2022/08/10 07:13:51;;;;;;;5.95;3.13;;;27.20;99.90;;;;;;4955072;28;20235;-77
2022/08/10 07:16:19;;;;;;;4.72;2.78;;;27.10;99.90;;;;;;4954807;28;20203;-77
2022/08/10 07:18:48;;;;;;;9.00;2.80;;;27.20;99.90;;;;;;4954772;28;20199;-77
2022/08/10 07:21:18;;;;;;;10.45;2.97;;;27.60;99.90;;;;;;4954802;29;20230;-78
2022/08/10 07:23:47;;;;;;;17.35;3.03;;;27.90;99.90;;;;;;4954889;28;20636;-77
2022/08/10 07:26:16;;;;;;;10.85;3.22;;;27.80;99.90;;;;;;4954639;29;20222;-77
2022/08/10 07:28:44;;;;;;;7.75;2.72;;;28.30;99.90;;;;;;4954524;29;20696;-77
2022/08/10 07:31:16;;;;;;;11.38;3.05;;;28.10;99.90;;;;;;4954864;29;20290;-77
2022/08/10 07:33:43;;;;;;;7.28;2.85;;;28.80;99.90;;;;;;4954649;29;20203;-77
2022/08/10 07:36:11;;;;;;;7.43;3.05;;;29.00;98.30;;;;;;4954677;29;20750;-77
2022/08/10 07:38:40;;;;;;;10.13;2.90;;;28.50;98.60;;;;;;4954846;29;20203;-77
2022/08/10 07:41:08;;;;;;;11.85;3.03;;;29.50;96.30;;;;;;4954536;28;20211;-77
2022/08/10 07:43:38;;;;;;;14.98;2.95;;;29.10;93.70;;;;;;4954399;28;20239;-77
2022/08/10 07:46:12;;;;;;;9.18;3.13;;;29.00;95.10;;;;;;4954518;29;20313;-77
2022/08/10 07:48:45;;;;;;;12.23;2.90;;;28.30;91.60;;;;;;4954615;29;20686;-77
2022/08/10 07:51:13;;;;;;;7.80;2.67;;;28.80;89.50;;;;;;4954781;29;20290;-77
2022/08/10 07:53:46;;;;;;;11.68;2.42;;;28.90;85.30;;;;;;4954368;28;20234;-77
2022/08/10 07:56:13;;;;;;;9.25;2.67;;;29.30;81.70;;;;;;4954426;29;20672;-77
2022/08/10 07:58:46;;;;;;;6.97;2.72;;;29.00;82.10;;;;;;4954092;29;20270;-74
2022/08/10 08:01:15;;;;;;;6.82;2.55;;;28.70;81.60;;;;;;4954158;28;20278;-75
2022/08/10 08:03:44;;;;;;;3.45;2.42;;;29.00;74.50;;;;;;4954314;29;20234;-75
2022/08/10 08:06:13;;;;;;;5.50;2.75;;;29.20;72.10;;;;;;4954347;29;20422;-74
2022/08/10 08:08:44;;;;;;;5.28;2.65;;;29.50;69.60;;;;;;4954177;29;20631;-75
2022/08/10 08:11:14;;;;;;;3.30;2.20;;;31.00;52.40;;;;;;4954213;29;20207;-75
2022/08/10 08:13:41;;;;;;;4.72;2.28;;;31.50;39.50;;;;;;4934691;29;20219;-75
2022/08/10 08:16:10;;;;;;;3.90;2.20;;;31.80;32.40;;;;;;4935064;29;20283;-75
2022/08/10 08:18:38;;;;;;;5.30;2.63;;;31.10;29.30;;;;;;4936631;29;20239;-75
2022/08/10 08:21:07;;;;;;;3.33;2.40;;;31.00;37.80;;;;;;4938839;29;20684;-75
2022/08/10 08:23:36;;;;;;;4.57;2.25;;;31.90;22.70;;;;;;4938571;29;20203;-74
2022/08/10 08:26:04;;;;;;;4.28;2.30;;;31.70;23.70;;;;;;4953206;29;20676;-74
2022/08/10 08:28:35;;;;;;;3.85;2.13;;;31.90;20.30;;;;;;4937985;29;20235;-75
2022/08/10 08:31:03;;;;;;;3.45;2.15;;;32.70;11.90;;;;;;4938568;29;20207;-75
2022/08/10 08:33:31;;;;;;;5.10;2.25;;;32.40;5.20;;;;;;4938498;29;20231;-74
2022/08/10 08:36:00;;;;;;;3.63;2.35;;;32.70;3.90;;;;;;4938717;29;20249;-75
2022/08/10 08:38:29;;;;;;;2.78;2.42;;;33.10;2.80;;;;;;4938440;29;20236;-75
2022/08/10 08:41:03;;;;;;;5.25;2.47;;;33.20;1.00;;;;;;4938615;29;20239;-75
2022/08/10 08:43:48;;;;;;;2.75;2.40;;;33.20;1.00;;;;;;4938072;29;20208;-75
2022/08/10 08:46:54;;;;;;;2.90;2.10;;;32.40;1.00;;;;;;4938210;29;20319;-75
2022/08/10 08:49:52;;;;;;;4.10;2.20;;;33.20;1.00;;;;;;4938392;29;20235;-75
2022/08/10 08:52:33;;;;;;;3.60;2.20;;;34.30;1.00;;;;;;4897764;29;20280;-75
2022/08/10 08:55:15;;;;;;;3.95;2.40;;;35.00;1.00;;;;;;4897477;29;20616;-75
2022/08/10 08:57:49;;;;;;;5.45;2.45;;;34.80;1.00;;;;;;4897463;29;20256;-75
2022/08/10 09:00:22;;;;;;;4.85;2.20;;;34.00;1.00;;;;;;4899678;29;20291;-75
2022/08/10 09:03:18;;;;;;;3.70;2.30;;;34.60;1.00;;;;;;4916219;29;20208;-74
2022/08/10 09:05:57;;;;;;;5.15;2.30;;;34.00;1.00;;;;;;4914179;29;20227;-75
2022/08/10 09:08:41;;;;;;;4.70;2.50;;;34.80;1.00;;;;;;4916427;29;20256;-74
2022/08/10 09:11:28;;;;;;;4.53;2.25;;;35.00;1.00;;;;;;4916335;29;20243;-75
2022/08/10 09:14:01;;;;;;;3.65;2.28;;;35.50;1.00;;;;;;4916421;29;20348;-75
2022/08/10 09:16:35;;;;;;;5.03;2.38;;;35.40;1.00;;;;;;4916473;29;20204;-75
2022/08/10 09:19:08;;;;;;;3.33;2.25;;;33.80;1.00;;;;;;4916423;29;20215;-75
2022/08/10 09:21:54;;;;;;;3.50;2.40;;;35.20;1.00;;;;;;4916444;29;20236;-75
2022/08/10 09:24:30;;;;;;;4.18;2.30;;;35.70;1.00;;;;;;4916465;29;20287;-77
2022/08/10 09:27:07;;;;;;;5.70;2.47;;;35.30;1.00;;;;;;4916135;29;20259;-74
2022/08/10 09:29:43;;;;;;;3.42;2.53;;;35.10;1.00;;;;;;4930382;29;20206;-77
2022/08/10 09:32:16;;;;;;;3.88;2.20;;;34.80;1.00;;;;;;4937586;29;20290;-77
2022/08/10 09:34:54;;;;;;;4.32;2.17;;;35.50;1.00;;;;;;4937734;29;20222;-75
2022/08/10 09:37:28;;;;;;;2.67;2.00;;;35.90;1.00;;;;;;4937431;29;20199;-75
2022/08/10 09:39:58;;;;;;;4.80;2.22;;;35.20;1.00;;;;;;4936927;29;20207;-75
2022/08/10 09:42:40;;;;;;;3.67;2.28;;;36.40;1.00;;;;;;4937322;29;20212;-75
2022/08/10 09:45:15;;;;;;;3.72;2.47;;;37.20;1.00;;;;;;4937796;29;20243;-78
2022/08/10 09:48:18;;;;;;;5.07;2.40;;;37.10;1.00;;;;;;4937655;29;20318;-77
2022/08/10 09:50:58;;;;;;;5.03;2.50;;;36.10;1.00;;;;;;4937174;29;20207;-73
2022/08/10 09:53:41;;;;;;;4.15;2.13;;;36.50;1.00;;;;;;4937108;29;20298;-74
2022/08/10 09:56:18;;;;;;;3.90;2.38;;;37.30;1.00;;;;;;4937072;29;20207;-75
2022/08/10 09:58:56;;;;;;;6.60;2.45;;;36.80;1.00;;;;;;4937194;29;20231;-74
2022/08/10 10:01:27;;;;;;;5.63;2.35;;;38.00;1.00;;;;;;4948191;29;20711;-75
2022/08/10 10:04:04;;;;;;;5.47;2.30;;;38.30;1.00;;;;;;4955977;29;20297;-75
2022/08/10 10:06:39;;;;;;;4.25;2.10;;;38.00;1.00;;;;;;4955956;29;20262;-74
2022/08/10 10:09:11;;;;;;;3.95;2.22;;;37.20;1.00;;;;;;4955784;29;20253;-74
2022/08/10 10:11:49;;;;;;;4.38;2.10;;;37.60;1.00;;;;;;4955680;29;20242;-74
2022/08/10 10:14:34;;;;;;;2.40;1.88;;;38.40;1.00;;;;;;4955690;29;20234;-74
2022/08/10 10:17:07;;;;;;;5.53;2.42;;;38.30;1.00;;;;;;4955685;29;20194;-75
2022/08/10 10:19:59;;;;;;;5.35;2.50;;;37.50;1.00;;;;;;4955681;29;20233;-74
2022/08/10 10:22:51;;;;;;;2.47;2.10;;;37.50;1.00;;;;;;4955548;29;20667;-74
2022/08/10 10:25:27;;;;;;;3.78;2.10;;;37.60;1.00;;;;;;4955702;29;20237;-75
2022/08/10 10:28:05;;;;;;;5.35;2.28;;;37.70;1.00;;;;;;4955425;29;20226;-78
2022/08/10 10:30:45;;;;;;;4.90;2.15;;;38.10;1.00;;;;;;4955853;29;20230;-78
2022/08/10 10:33:18;;;;;;;3.47;2.20;;;37.30;1.00;;;;;;4955660;29;20257;-75
2022/08/10 10:35:52;;;;;;;3.78;2.13;;;37.20;1.00;;;;;;4955521;29;20304;-75
2022/08/10 10:38:23;;;;;;;4.22;2.00;;;38.60;1.00;;;;;;4955056;29;20265;-74
2022/08/10 10:41:01;;;;;;;3.60;2.22;;;37.80;1.00;;;;;;4954931;28;20379;-75
2022/08/10 10:43:42;;;;;;;3.92;2.03;;;37.40;1.00;;;;;;4955063;29;20252;-74
2022/08/10 10:46:24;;;;;;;5.38;2.25;;;37.80;1.00;;;;;;4955295;29;20261;-78
2022/08/10 10:49:00;;;;;;;4.80;2.22;;;37.10;1.00;;;;;;4955265;29;20721;-78
2022/08/10 10:51:33;;;;;;;3.22;2.20;;;38.00;1.00;;;;;;4955322;29;20269;-77
2022/08/10 10:54:08;;;;;;;3.67;2.25;;;38.70;1.00;;;;;;4955095;29;20256;-77
2022/08/10 10:56:43;;;;;;;4.63;2.20;;;37.70;1.00;;;;;;4954972;29;20198;-78
2022/08/10 10:59:24;;;;;;;5.18;2.35;;;37.80;1.00;;;;;;4955271;29;20222;-78
2022/08/10 11:02:01;;;;;;;3.35;2.30;;;38.20;1.00;;;;;;4954823;29;20262;-78
2022/08/10 11:04:36;;;;;;;3.80;2.17;;;38.60;1.00;;;;;;4955092;29;20248;-78
2022/08/10 11:07:16;;;;;;;5.07;2.20;;;37.80;1.00;;;;;;4954675;29;20225;-78
2022/08/10 11:09:48;;;;;;;3.05;2.20;;;38.00;1.00;;;;;;4955240;29;20237;-77
2022/08/10 11:12:23;;;;;;;2.47;2.28;;;37.10;1.00;;;;;;4954983;29;20228;-78
2022/08/10 11:15:00;;;;;;;3.00;2.00;;;37.60;1.00;;;;;;4955109;29;20198;-78
2022/08/10 11:17:32;;;;;;;2.95;2.25;;;38.10;1.00;;;;;;4954889;29;20237;-77
2022/08/10 11:20:11;;;;;;;2.92;2.58;;;38.10;1.00;;;;;;4955261;29;20309;-77
2022/08/10 11:22:46;;;;;;;2.50;2.30;;;37.80;1.00;;;;;;4954812;29;20294;-77
2022/08/10 11:25:19;;;;;;;2.42;1.90;;;38.10;1.00;;;;;;4954892;29;20248;-77
2022/08/10 11:27:52;;;;;;;7.47;2.70;;;38.20;1.00;;;;;;4954783;29;20317;-77
2022/08/10 11:30:25;;;;;;;2.50;2.30;;;37.20;1.00;;;;;;4954710;29;20261;-78
2022/08/10 11:33:06;;;;;;;4.25;2.20;;;37.40;1.00;;;;;;4955013;29;20285;-77
2022/08/10 11:35:43;;;;;;;4.18;2.50;;;37.40;1.00;;;;;;4954404;29;20253;-77
2022/08/10 11:38:15;;;;;;;3.55;2.40;;;36.60;1.00;;;;;;4954854;29;20198;-77
2022/08/10 11:40:46;;;;;;;2.92;2.50;;;36.60;1.00;;;;;;4954605;29;20237;-77
2022/08/10 11:43:20;;;;;;;5.25;2.63;;;37.30;1.00;;;;;;4954771;29;20246;-77
2022/08/10 11:45:51;;;;;;;6.07;2.45;;;37.40;1.00;;;;;;4954558;29;20212;-77
2022/08/10 11:48:30;;;;;;;4.38;2.50;;;36.90;1.00;;;;;;4954564;29;20285;-75
2022/08/10 11:50:59;;;;;;;2.58;2.38;;;37.10;1.00;;;;;;4954131;29;20659;-77
2022/08/10 11:53:42;;;;;;;4.50;2.45;;;38.60;1.00;;;;;;4955830;28;20293;-78
2022/08/10 11:56:12;;;;;;;5.63;2.50;;;40.10;1.00;;;;;;4958440;29;20683;-74
2022/08/10 12:01:32;;;;;;;2.70;2.42;;;37.40;1.00;;;;;;4958117;29;20245;-74
2022/08/10 12:04:06;;;;;;;3.58;2.20;;;37.40;1.00;;;;;;4958154;29;20939;-75
2022/08/10 12:06:35;;;;;;;4.03;2.42;;;37.80;1.00;;;;;;4958044;29;20218;-74
2022/08/10 12:09:04;;;;;;;4.03;2.30;;;38.70;1.00;;;;;;4957963;29;20210;-75
2022/08/10 12:11:31;;;;;;;2.58;2.25;;;38.40;1.00;;;;;;4960117;28;20620;-75
2022/08/10 12:14:04;;;;;;;4.38;2.20;;;37.50;1.00;;;;;;4977327;28;20327;-75
2022/08/10 12:16:39;;;;;;;3.22;2.10;;;37.50;1.00;;;;;;4977601;28;20289;-75
2022/08/10 12:19:15;;;;;;;3.33;1.98;;;38.60;1.00;;;;;;4976888;28;20668;-74
2022/08/10 12:21:46;;;;;;;4.90;2.22;;;38.00;1.00;;;;;;4977131;28;20299;-74
2022/08/10 12:24:21;;;;;;;3.88;2.03;;;36.90;1.00;;;;;;4977329;28;20210;-75
2022/08/10 12:26:56;;;;;;;2.35;1.92;;;36.80;1.00;;;;;;4977293;28;20287;-74
2022/08/10 12:29:33;;;;;;;4.55;2.35;;;37.20;1.00;;;;;;4977157;28;20237;-74
2022/08/10 12:32:05;;;;;;;2.67;2.47;;;37.90;1.00;;;;;;4977192;28;20201;-74
2022/08/10 12:34:39;;;;;;;2.90;2.10;;;37.30;1.00;;;;;;4977004;28;20566;-77
2022/08/10 12:37:14;;;;;;;3.92;2.05;;;37.00;1.00;;;;;;4977310;28;20207;-77
2022/08/10 12:39:53;;;;;;;4.40;2.20;;;36.70;1.00;;;;;;4976835;28;20233;-77
2022/08/10 12:42:26;;;;;;;8.20;2.40;;;37.50;1.00;;;;;;4977204;28;20252;-77
2022/08/10 12:45:00;;;;;;;4.85;2.45;;;37.00;1.00;;;;;;4976802;28;20658;-77
2022/08/10 12:47:39;;;;;;;5.90;2.50;;;36.90;1.00;;;;;;4976783;28;20276;-77
2022/08/10 12:50:18;;;;;;;5.00;2.35;;;36.70;1.00;;;;;;4977140;28;20206;-77
2022/08/10 12:52:55;;;;;;;6.85;2.40;;;37.20;1.00;;;;;;4977004;28;20205;-77
2022/08/10 12:55:24;;;;;;;9.52;2.35;;;37.20;1.00;;;;;;4976872;28;20276;-77
2022/08/10 12:57:53;;;;;;;4.25;2.30;;;36.90;1.00;;;;;;4976366;28;20265;-77
2022/08/10 13:00:26;;;;;;;4.45;2.10;;;36.50;1.00;;;;;;4976472;28;20601;-77
2022/08/10 13:02:54;;;;;;;3.05;2.20;;;36.90;1.00;;;;;;4976313;28;20233;-77
2022/08/10 13:05:25;;;;;;;2.22;2.00;;;36.60;1.00;;;;;;4976287;28;20208;-77
2022/08/10 13:10:44;;;;;;;5.93;2.20;;;37.30;1.00;;;;;;4975050;28;20205;-77
2022/08/10 13:13:14;;;;;;;2.95;2.00;;;37.20;1.00;;;;;;4960874;28;20619;-77
2022/08/10 13:15:46;;;;;;;4.95;2.20;;;37.10;1.00;;;;;;4956627;29;20682;-77
2022/08/10 13:18:15;;;;;;;3.15;1.85;;;36.80;1.00;;;;;;4956729;29;20289;-77
2022/08/10 13:20:45;;;;;;;5.05;2.17;;;37.60;1.00;;;;;;4956943;29;20234;-77
2022/08/10 13:23:15;;;;;;;2.25;2.00;;;37.00;1.00;;;;;;4956863;29;20294;-77
2022/08/10 13:25:46;;;;;;;3.45;2.20;;;36.70;1.00;;;;;;4956728;29;20203;-77